createdAt,value
2023-04-07T00:00:08.445Z,59.02
2023-04-07T00:02:39.758Z,59.19
2023-04-07T00:05:12.207Z,59.20
2023-04-07T00:07:55.143Z,58.86
2023-04-07T00:10:27.576Z,59.00
2023-04-07T00:12:58.640Z,59.14
2023-04-07T00:15:29.292Z,59.15
2023-04-07T00:18:00.548Z,59.21
2023-04-07T00:20:31.534Z,59.27
2023-04-07T00:23:02.626Z,59.49
2023-04-07T00:25:33.342Z,59.58
2023-04-07T00:28:03.908Z,59.65
2023-04-07T00:30:34.788Z,59.64
2023-04-07T00:33:05.949Z,59.65
2023-04-07T00:35:41.185Z,59.64
2023-04-07T00:38:13.200Z,59.58
2023-04-07T00:40:44.644Z,59.75
2023-04-07T00:43:15.925Z,59.84
2023-04-07T00:45:46.794Z,59.83
2023-04-07T00:48:18.401Z,59.78
2023-04-07T00:50:49.276Z,59.73
2023-04-07T00:53:20.879Z,59.53
2023-04-07T00:55:52.178Z,59.58
2023-04-07T00:58:23.594Z,59.54
2023-04-07T01:01:01.773Z,59.87
2023-04-07T01:03:37.848Z,60.02
2023-04-07T01:06:13.142Z,59.98
2023-04-07T01:08:52.724Z,60.02
2023-04-07T01:11:42.030Z,60.19
2023-04-07T01:14:14.791Z,60.36
2023-04-07T01:16:50.615Z,60.49
2023-04-07T01:19:38.068Z,60.31
2023-04-07T01:22:13.257Z,60.31
2023-04-07T01:25:04.768Z,60.37
2023-04-07T01:27:45.128Z,60.55
2023-04-07T01:30:21.896Z,60.84
2023-04-07T01:32:56.623Z,60.74
2023-04-07T01:35:30.799Z,60.59
2023-04-07T01:38:03.742Z,60.59
2023-04-07T01:40:36.274Z,60.43
2023-04-07T01:43:07.897Z,60.09
2023-04-07T01:45:39.544Z,60.65
2023-04-07T01:48:11.373Z,60.37
2023-04-07T01:50:42.475Z,60.58
2023-04-07T01:53:13.828Z,60.80
2023-04-07T01:55:45.472Z,60.67
2023-04-07T01:58:15.991Z,61.08
2023-04-07T02:00:47.093Z,61.02
2023-04-07T02:03:22.026Z,60.78
2023-04-07T02:05:56.576Z,60.65
2023-04-07T02:08:32.324Z,60.95
2023-04-07T02:11:04.847Z,60.96
2023-04-07T02:13:38.420Z,61.09
2023-04-07T02:16:09.696Z,61.50
2023-04-07T02:18:41.747Z,61.24
2023-04-07T02:21:13.082Z,61.23
2023-04-07T02:23:43.490Z,61.34
2023-04-07T02:26:13.904Z,61.26
2023-04-07T02:28:44.333Z,61.50
2023-04-07T02:31:14.747Z,61.20
2023-04-07T02:33:45.131Z,60.88
2023-04-07T02:36:15.464Z,60.94
2023-04-07T02:38:46.053Z,60.85
2023-04-07T02:41:16.391Z,61.31
2023-04-07T02:43:46.676Z,61.19
2023-04-07T02:46:17.139Z,61.20
2023-04-07T02:48:47.473Z,61.22
2023-04-07T02:51:17.792Z,61.12
2023-04-07T02:53:48.713Z,61.04
2023-04-07T02:56:19.516Z,61.18
2023-04-07T02:58:49.839Z,61.22
2023-04-07T03:01:20.481Z,61.31
2023-04-07T03:03:51.247Z,61.38
2023-04-07T03:06:22.200Z,61.59
2023-04-07T03:08:53.244Z,61.54
2023-04-07T03:11:23.599Z,61.51
2023-04-07T03:13:54.014Z,61.17
2023-04-07T03:16:25.246Z,61.58
2023-04-07T03:18:55.979Z,61.06
2023-04-07T03:21:28.860Z,61.61
2023-04-07T03:23:59.227Z,61.22
2023-04-07T03:26:30.112Z,61.42
2023-04-07T03:29:00.877Z,61.01
2023-04-07T03:31:31.453Z,61.28
2023-04-07T03:34:01.845Z,60.76
2023-04-07T03:36:32.971Z,60.88
2023-04-07T03:39:03.463Z,61.41
2023-04-07T03:41:33.909Z,61.42
2023-04-07T03:44:04.301Z,61.38
2023-04-07T03:46:34.751Z,61.61
2023-04-07T03:49:05.637Z,61.32
2023-04-07T03:51:36.377Z,61.01
2023-04-07T03:54:07.017Z,61.28
2023-04-07T03:56:38.427Z,60.90
2023-04-07T03:59:08.933Z,60.93
2023-04-07T04:01:39.735Z,60.71
2023-04-07T04:04:10.346Z,61.12
2023-04-07T04:06:41.578Z,61.09
2023-04-07T04:09:11.929Z,61.18
2023-04-07T04:11:42.527Z,61.31
2023-04-07T04:14:12.849Z,61.32
2023-04-07T04:16:43.233Z,61.36
2023-04-07T04:19:13.628Z,61.74
2023-04-07T04:21:44.025Z,61.88
2023-04-07T04:24:14.498Z,61.66
2023-04-07T04:26:45.364Z,62.09
2023-04-07T04:29:16.272Z,62.29
2023-04-07T04:31:46.741Z,62.27
2023-04-07T04:34:17.572Z,62.23
2023-04-07T04:36:49.208Z,62.39
2023-04-07T04:39:19.759Z,62.61
2023-04-07T04:41:50.323Z,62.61
2023-04-07T04:44:20.946Z,62.88
2023-04-07T04:46:51.384Z,63.06
2023-04-07T04:49:22.116Z,63.32
2023-04-07T04:51:53.113Z,63.05
2023-04-07T04:54:23.497Z,63.03
2023-04-07T04:56:53.903Z,63.39
2023-04-07T04:59:24.515Z,63.31
2023-04-07T05:01:55.042Z,63.67
2023-04-07T05:04:25.903Z,63.83
2023-04-07T05:06:56.432Z,63.55
2023-04-07T05:09:27.440Z,63.87
2023-04-07T05:11:58.241Z,63.90
2023-04-07T05:14:28.662Z,63.80
2023-04-07T05:17:00.762Z,64.08
2023-04-07T05:19:31.347Z,64.54
2023-04-07T05:22:01.632Z,64.25
2023-04-07T05:24:32.672Z,64.39
2023-04-07T05:27:03.049Z,64.00
2023-04-07T05:29:33.471Z,63.81
2023-04-07T05:32:06.390Z,64.05
2023-04-07T05:34:37.157Z,63.82
2023-04-07T05:37:07.884Z,63.96
2023-04-07T05:39:38.618Z,63.91
2023-04-07T05:42:09.346Z,64.39
2023-04-07T05:44:39.711Z,64.79
2023-04-07T05:47:11.441Z,64.63
2023-04-07T05:49:45.996Z,64.67
2023-04-07T05:52:16.798Z,64.20
2023-04-07T05:54:47.943Z,64.29
2023-04-07T05:57:18.401Z,64.24
2023-04-07T05:59:48.802Z,64.55
2023-04-07T06:02:19.934Z,64.74
2023-04-07T06:04:50.516Z,64.58
2023-04-07T06:07:20.929Z,64.13
2023-04-07T06:09:51.407Z,64.29
2023-04-07T06:12:21.782Z,64.90
2023-04-07T06:14:56.083Z,64.55
2023-04-07T06:17:26.869Z,64.70
2023-04-07T06:19:57.307Z,64.53
2023-04-07T06:22:27.764Z,65.32
2023-04-07T06:24:58.775Z,66.42
2023-04-07T06:27:29.576Z,66.76
2023-04-07T06:30:00.314Z,66.90
2023-04-07T06:32:30.853Z,67.08
2023-04-07T06:35:01.601Z,67.22
2023-04-07T06:37:31.972Z,67.36
2023-04-07T06:40:02.413Z,66.93
2023-04-07T06:42:32.818Z,66.87
2023-04-07T06:45:03.637Z,67.17
2023-04-07T06:47:34.107Z,66.81
2023-04-07T06:50:04.953Z,66.42
2023-04-07T06:52:35.675Z,66.20
2023-04-07T06:55:07.701Z,65.75
2023-04-07T06:57:38.060Z,65.22
2023-04-07T07:00:12.032Z,64.09
2023-04-07T07:02:42.674Z,64.17
2023-04-07T07:05:13.294Z,63.79
2023-04-07T07:07:44.098Z,63.65
2023-04-07T07:10:14.746Z,63.39
2023-04-07T07:12:45.418Z,63.06
2023-04-07T07:15:16.051Z,62.45
2023-04-07T07:17:46.880Z,62.21
2023-04-07T07:20:17.549Z,62.31
2023-04-07T07:22:47.972Z,61.46
2023-04-07T07:25:18.591Z,61.38
2023-04-07T07:27:53.214Z,61.42
2023-04-07T07:30:25.446Z,61.51
2023-04-07T07:32:56.270Z,60.26
2023-04-07T07:35:26.845Z,59.55
2023-04-07T07:37:57.164Z,59.30
2023-04-07T07:40:27.519Z,59.28
2023-04-07T07:42:58.356Z,58.28
2023-04-07T07:45:28.952Z,58.28
2023-04-07T07:47:59.341Z,58.33
2023-04-07T07:50:31.368Z,57.42
2023-04-07T07:53:02.032Z,56.09
2023-04-07T07:55:32.479Z,56.35
2023-04-07T07:58:02.881Z,55.91
2023-04-07T08:00:33.287Z,55.87
2023-04-07T08:03:04.092Z,56.06
2023-04-07T08:05:36.265Z,55.73
2023-04-07T08:08:06.688Z,55.76
2023-04-07T08:10:37.430Z,55.05
2023-04-07T08:13:08.125Z,54.28
2023-04-07T08:15:40.620Z,53.96
2023-04-07T08:18:11.504Z,53.95
2023-04-07T08:20:42.460Z,54.35
2023-04-07T08:23:13.347Z,54.29
2023-04-07T08:25:43.841Z,54.64
2023-04-07T08:28:14.247Z,54.02
2023-04-07T08:30:44.773Z,53.70
2023-04-07T08:33:15.513Z,53.26
2023-04-07T08:35:47.583Z,52.49
2023-04-07T08:38:21.168Z,52.46
2023-04-07T08:40:54.723Z,53.02
2023-04-07T08:43:26.514Z,52.64
2023-04-07T08:45:59.123Z,51.70
2023-04-07T08:48:34.003Z,51.40
2023-04-07T08:51:10.285Z,50.62
2023-04-07T08:53:44.750Z,50.47
2023-04-07T08:56:15.653Z,50.06
2023-04-07T08:58:46.429Z,49.60
2023-04-07T09:01:17.488Z,50.09
2023-04-07T09:03:49.880Z,48.70
2023-04-07T09:06:20.887Z,49.00
2023-04-07T09:08:51.289Z,48.19
2023-04-07T09:11:23.374Z,48.16
2023-04-07T09:13:53.698Z,48.39
2023-04-07T09:16:24.929Z,49.04
2023-04-07T09:18:56.205Z,47.97
2023-04-07T09:21:27.106Z,47.02
2023-04-07T09:23:58.017Z,47.17
2023-04-07T09:26:31.337Z,46.08
2023-04-07T09:29:04.006Z,46.55
2023-04-07T09:31:48.020Z,46.13
2023-04-07T09:34:29.512Z,46.89
2023-04-07T09:37:00.533Z,47.12
2023-04-07T09:39:31.845Z,46.88
2023-04-07T09:42:08.906Z,47.06
2023-04-07T09:44:45.130Z,46.97
2023-04-07T09:47:15.948Z,46.73
2023-04-07T09:49:53.968Z,47.03
2023-04-07T09:52:27.374Z,46.75
2023-04-07T09:54:59.828Z,46.57
2023-04-07T09:57:30.951Z,46.96
2023-04-07T10:00:02.144Z,46.65
2023-04-07T10:02:33.534Z,46.97
2023-04-07T10:05:04.420Z,46.42
2023-04-07T10:07:35.840Z,46.76
2023-04-07T10:10:08.528Z,46.86
2023-04-07T10:12:41.349Z,47.79
2023-04-07T10:15:15.918Z,47.47
2023-04-07T10:17:49.321Z,47.86
2023-04-07T10:20:21.717Z,48.27
2023-04-07T10:22:54.607Z,47.70
2023-04-07T10:25:26.778Z,47.77
2023-04-07T10:28:00.860Z,46.99
2023-04-07T10:30:33.775Z,47.59
2023-04-07T10:33:04.280Z,47.06
2023-04-07T10:36:06.189Z,45.81
2023-04-07T10:38:36.757Z,45.38
2023-04-07T10:41:36.966Z,45.20
2023-04-07T10:44:08.708Z,45.90
2023-04-07T10:47:07.590Z,44.56
2023-04-07T10:49:38.684Z,46.05
2023-04-07T10:52:28.443Z,46.44
2023-04-07T10:55:36.859Z,46.56
2023-04-07T10:58:24.903Z,44.43
2023-04-07T11:01:22.710Z,44.24
2023-04-07T11:04:01.561Z,43.72
2023-04-07T11:06:32.621Z,45.26
2023-04-07T11:09:03.798Z,45.19
2023-04-07T11:11:42.505Z,45.36
2023-04-07T11:14:26.990Z,44.80
2023-04-07T11:16:58.567Z,45.30
2023-04-07T11:19:29.096Z,44.45
2023-04-07T11:22:26.720Z,45.45
2023-04-07T11:25:00.324Z,44.29
2023-04-07T11:27:31.856Z,44.63
2023-04-07T11:30:03.458Z,44.89
2023-04-07T11:32:33.908Z,44.42
2023-04-07T11:35:09.086Z,44.73
2023-04-07T11:37:40.033Z,43.70
2023-04-07T11:40:14.542Z,43.76
2023-04-07T11:42:46.334Z,44.69
2023-04-07T11:45:20.813Z,44.41
2023-04-07T11:47:51.835Z,43.85
2023-04-07T11:50:40.698Z,44.67
2023-04-07T11:53:11.748Z,44.56
2023-04-07T11:55:42.369Z,43.85
2023-04-07T11:58:14.372Z,44.67
2023-04-07T12:00:57.528Z,45.66
2023-04-07T12:03:28.672Z,44.23
2023-04-07T12:05:59.173Z,43.71
2023-04-07T12:08:42.184Z,45.48
2023-04-07T12:11:13.334Z,45.31
2023-04-07T12:13:43.637Z,44.42
2023-04-07T12:16:13.996Z,42.90
2023-04-07T12:18:44.697Z,43.42
2023-04-07T12:21:15.651Z,42.98
2023-04-07T12:23:46.197Z,43.21
2023-04-07T12:26:16.849Z,42.57
2023-04-07T12:28:47.127Z,43.09
2023-04-07T12:31:17.584Z,42.54
2023-04-07T12:33:48.316Z,42.07
2023-04-07T12:36:18.835Z,41.45
2023-04-07T12:38:49.696Z,41.97
2023-04-07T12:41:20.017Z,42.08
2023-04-07T12:43:50.861Z,42.78
2023-04-07T12:46:21.736Z,43.19
2023-04-07T12:48:52.609Z,43.24
2023-04-07T12:51:23.390Z,43.30
2023-04-07T12:53:54.611Z,42.61
2023-04-07T12:56:25.229Z,42.42
2023-04-07T12:58:55.867Z,41.09
2023-04-07T13:01:27.239Z,42.99
2023-04-07T13:03:58.492Z,42.78
2023-04-07T13:06:28.994Z,41.98
2023-04-07T13:08:59.377Z,40.88
2023-04-07T13:11:29.905Z,42.72
2023-04-07T13:14:01.401Z,42.15
2023-04-07T13:16:32.177Z,40.84
2023-04-07T13:19:04.009Z,41.02
2023-04-07T13:21:46.168Z,40.35
2023-04-07T13:24:18.391Z,41.40
2023-04-07T13:26:49.284Z,41.64
2023-04-07T13:29:19.827Z,41.50
2023-04-07T13:31:50.669Z,41.07
2023-04-07T13:34:21.124Z,41.22
2023-04-07T13:36:51.809Z,41.36
2023-04-07T13:39:22.847Z,40.72
2023-04-07T13:41:53.610Z,40.49
2023-04-07T13:44:23.970Z,40.59
2023-04-07T13:46:54.884Z,42.95
2023-04-07T13:49:25.785Z,41.32
2023-04-07T13:51:56.369Z,39.93
2023-04-07T13:54:27.292Z,39.59
2023-04-07T13:56:58.011Z,39.90
2023-04-07T13:59:29.757Z,41.09
2023-04-07T14:02:00.707Z,39.88
2023-04-07T14:04:31.276Z,39.74
2023-04-07T14:07:01.712Z,40.40
2023-04-07T14:09:32.107Z,40.64
2023-04-07T14:12:02.484Z,40.56
2023-04-07T14:14:33.217Z,41.21
2023-04-07T14:17:03.625Z,39.92
2023-04-07T14:19:34.995Z,41.02
2023-04-07T14:22:05.655Z,42.04
2023-04-07T14:24:36.197Z,41.78
2023-04-07T14:27:06.656Z,41.73
2023-04-07T14:29:37.075Z,40.64
2023-04-07T14:32:07.624Z,41.63
2023-04-07T14:34:59.391Z,42.16
2023-04-07T14:37:30.555Z,41.99
2023-04-07T14:40:03.017Z,41.17
2023-04-07T14:42:34.379Z,41.41
2023-04-07T14:45:04.956Z,41.06
2023-04-07T14:47:35.929Z,41.68
2023-04-07T14:50:07.633Z,41.48
2023-04-07T14:52:39.532Z,41.19
2023-04-07T14:55:11.506Z,41.09
2023-04-07T14:57:41.908Z,42.22
2023-04-07T15:00:14.356Z,42.31
2023-04-07T15:02:45.728Z,42.59
2023-04-07T15:05:17.295Z,42.46
2023-04-07T15:07:49.820Z,41.89
2023-04-07T15:10:21.152Z,42.88
2023-04-07T15:12:51.953Z,42.86
2023-04-07T15:15:22.679Z,42.99
2023-04-07T15:17:53.454Z,43.08
2023-04-07T15:20:24.288Z,42.25
2023-04-07T15:22:54.666Z,41.99
2023-04-07T15:25:25.448Z,41.56
2023-04-07T15:27:56.164Z,41.43
2023-04-07T15:30:26.682Z,41.22
2023-04-07T15:33:01.827Z,41.76
2023-04-07T15:35:32.360Z,41.64
2023-04-07T15:38:02.791Z,42.15
2023-04-07T15:40:36.972Z,41.67
2023-04-07T15:43:10.462Z,41.49
2023-04-07T15:45:45.873Z,42.48
2023-04-07T15:48:17.208Z,43.21
2023-04-07T15:50:47.566Z,42.10
2023-04-07T15:53:18.053Z,41.28
2023-04-07T15:55:48.506Z,40.78
2023-04-07T15:58:19.204Z,41.23
2023-04-07T16:00:49.755Z,41.12
2023-04-07T16:03:20.409Z,41.49
2023-04-07T16:05:51.920Z,42.18
2023-04-07T16:08:23.461Z,41.96
2023-04-07T16:10:53.933Z,42.93
2023-04-07T16:13:24.271Z,43.49
2023-04-07T16:15:58.457Z,44.09
2023-04-07T16:18:30.253Z,44.62
2023-04-07T16:21:03.740Z,45.75
2023-04-07T16:23:35.440Z,46.27
2023-04-07T16:26:06.317Z,46.11
2023-04-07T16:28:38.964Z,45.84
2023-04-07T16:31:11.437Z,45.99
2023-04-07T16:33:42.256Z,45.23
2023-04-07T16:36:13.304Z,45.19
2023-04-07T16:38:44.217Z,45.29
2023-04-07T16:41:14.950Z,45.07
2023-04-07T16:43:45.345Z,45.27
2023-04-07T16:46:15.701Z,45.63
2023-04-07T16:48:46.113Z,46.15
2023-04-07T16:51:20.221Z,45.70
2023-04-07T16:53:51.274Z,45.86
2023-04-07T16:56:23.418Z,45.63
2023-04-07T16:58:54.637Z,46.14
2023-04-07T17:01:29.373Z,46.39
2023-04-07T17:04:00.284Z,46.61
2023-04-07T17:06:31.658Z,47.01
2023-04-07T17:09:01.992Z,46.90
2023-04-07T17:11:32.379Z,47.50
2023-04-07T17:14:03.342Z,47.22
2023-04-07T17:16:33.709Z,47.53
2023-04-07T17:19:04.014Z,47.83
2023-04-07T17:21:37.798Z,48.10
2023-04-07T17:24:08.940Z,48.38
2023-04-07T17:26:39.355Z,48.28
2023-04-07T17:29:10.602Z,48.62
2023-04-07T17:31:41.139Z,49.17
2023-04-07T17:34:13.301Z,48.32
2023-04-07T17:36:43.676Z,48.29
2023-04-07T17:39:14.274Z,48.62
2023-04-07T17:41:46.885Z,48.51
2023-04-07T17:44:17.605Z,48.83
2023-04-07T17:46:48.500Z,49.98
2023-04-07T17:49:19.399Z,50.11
2023-04-07T17:51:50.217Z,49.89
2023-04-07T17:54:20.645Z,50.21
2023-04-07T17:56:51.026Z,49.47
2023-04-07T17:59:21.801Z,49.52
2023-04-07T18:01:52.577Z,49.57
2023-04-07T18:04:23.648Z,49.81
2023-04-07T18:06:54.614Z,49.65
2023-04-07T18:09:24.978Z,49.48
2023-04-07T18:11:55.646Z,49.90
2023-04-07T18:14:28.034Z,50.23
2023-04-07T18:16:58.601Z,50.93
2023-04-07T18:19:31.271Z,51.88
2023-04-07T18:22:01.854Z,52.84
2023-04-07T18:24:32.620Z,53.74
2023-04-07T18:27:03.975Z,53.70
2023-04-07T18:29:34.876Z,54.10
2023-04-07T18:32:05.240Z,54.55
2023-04-07T18:34:36.147Z,54.88
2023-04-07T18:37:07.244Z,55.67
2023-04-07T18:39:38.358Z,57.02
2023-04-07T18:42:09.285Z,57.70
2023-04-07T18:44:39.652Z,58.44
2023-04-07T18:47:10.026Z,59.41
2023-04-07T18:49:40.583Z,60.28
2023-04-07T18:52:11.400Z,61.31
2023-04-07T18:54:41.820Z,62.78
2023-04-07T18:57:12.598Z,64.70
2023-04-07T18:59:43.701Z,65.47
2023-04-07T19:02:14.168Z,66.66
2023-04-07T19:04:44.676Z,68.03
2023-04-07T19:07:15.380Z,68.03
2023-04-07T19:09:46.722Z,68.64
2023-04-07T19:12:17.152Z,69.24
2023-04-07T19:14:47.841Z,69.44
2023-04-07T19:17:18.589Z,70.07
2023-04-07T19:19:49.724Z,70.61
2023-04-07T19:22:20.447Z,71.33
2023-04-07T19:24:51.737Z,71.72
2023-04-07T19:27:23.324Z,72.37
2023-04-07T19:29:53.686Z,71.94
2023-04-07T19:32:24.388Z,72.64
2023-04-07T19:34:55.217Z,73.39
2023-04-07T19:37:25.963Z,73.00
2023-04-07T19:40:03.010Z,73.85
2023-04-07T19:42:34.769Z,74.18
2023-04-07T19:45:08.009Z,74.39
2023-04-07T19:47:39.680Z,74.52
2023-04-07T19:50:14.177Z,74.61
2023-04-07T19:52:45.517Z,75.09
2023-04-07T19:55:16.307Z,75.27
2023-04-07T19:57:47.490Z,75.28
2023-04-07T20:00:19.000Z,75.81
2023-04-07T20:02:50.924Z,75.77
2023-04-07T20:05:22.351Z,76.18
2023-04-07T20:07:52.839Z,76.04
2023-04-07T20:10:23.296Z,75.88
2023-04-07T20:12:53.975Z,76.06
2023-04-07T20:15:25.214Z,76.07
2023-04-07T20:17:56.422Z,76.42
2023-04-07T20:20:26.796Z,76.47
2023-04-07T20:22:57.426Z,76.61
2023-04-07T20:25:27.881Z,76.44
2023-04-07T20:27:58.340Z,76.42
2023-04-07T20:30:28.747Z,76.35
2023-04-07T20:32:59.178Z,76.62
2023-04-07T20:35:30.460Z,76.47
2023-04-07T20:38:02.729Z,76.50
2023-04-07T20:40:35.588Z,76.75
2023-04-07T20:43:06.426Z,76.87
2023-04-07T20:45:37.228Z,76.72
2023-04-07T20:48:07.861Z,76.68
2023-04-07T20:50:38.427Z,76.78
2023-04-07T20:53:09.179Z,76.81
2023-04-07T20:55:40.076Z,76.77
2023-04-07T20:58:10.780Z,76.81
2023-04-07T21:00:41.275Z,77.13
2023-04-07T21:03:12.141Z,77.01
2023-04-07T21:05:43.740Z,77.06
2023-04-07T21:08:14.902Z,77.05
2023-04-07T21:10:45.507Z,77.14
2023-04-07T21:13:15.973Z,77.45
2023-04-07T21:15:46.551Z,77.29
2023-04-07T21:18:19.141Z,77.50
2023-04-07T21:20:50.539Z,77.75
2023-04-07T21:23:21.238Z,77.78
2023-04-07T21:25:51.763Z,77.98
2023-04-07T21:28:22.134Z,77.82
2023-04-07T21:30:55.780Z,77.83
2023-04-07T21:33:26.299Z,77.81
2023-04-07T21:35:56.692Z,78.13
2023-04-07T21:38:27.190Z,78.09
2023-04-07T21:40:57.867Z,78.10
2023-04-07T21:43:29.143Z,78.21
2023-04-07T21:45:59.547Z,78.50
2023-04-07T21:48:30.304Z,78.29
2023-04-07T21:51:01.062Z,78.41
2023-04-07T21:53:31.988Z,78.29
2023-04-07T21:56:02.712Z,78.28
2023-04-07T21:58:33.459Z,78.20
2023-04-07T22:01:04.098Z,78.30
2023-04-07T22:03:34.895Z,78.35
2023-04-07T22:06:05.914Z,78.28
2023-04-07T22:08:36.279Z,78.39
2023-04-07T22:11:07.641Z,78.52
2023-04-07T22:13:38.941Z,78.41
2023-04-07T22:16:09.995Z,78.66
2023-04-07T22:18:40.857Z,78.81
2023-04-07T22:21:12.014Z,78.85
2023-04-07T22:23:42.741Z,78.89
2023-04-07T22:26:13.471Z,79.13
2023-04-07T22:28:44.241Z,79.15
2023-04-07T22:31:14.999Z,79.19
2023-04-07T22:33:45.837Z,79.35
2023-04-07T22:36:17.030Z,79.38
2023-04-07T22:38:48.152Z,79.49
2023-04-07T22:41:19.067Z,79.48
2023-04-07T22:43:49.518Z,79.43
2023-04-07T22:46:19.865Z,79.41
2023-04-07T22:48:51.204Z,79.34
2023-04-07T22:51:22.504Z,79.52
2023-04-07T22:53:53.198Z,79.50
2023-04-07T22:56:24.286Z,79.65
2023-04-07T22:58:55.113Z,79.80
2023-04-07T23:01:26.355Z,79.95
2023-04-07T23:03:57.403Z,80.03
2023-04-07T23:06:29.198Z,80.15
2023-04-07T23:08:59.930Z,80.31
2023-04-07T23:11:30.435Z,80.27
2023-04-07T23:14:04.804Z,80.24
2023-04-07T23:16:35.816Z,80.33
2023-04-07T23:19:06.791Z,80.45
2023-04-07T23:21:37.928Z,80.46
2023-04-07T23:24:08.335Z,80.36
2023-04-07T23:26:38.763Z,80.33
2023-04-07T23:29:09.152Z,80.49
2023-04-07T23:31:39.607Z,80.63
2023-04-07T23:34:09.976Z,80.64
2023-04-07T23:36:42.117Z,80.63
2023-04-07T23:39:12.845Z,80.73
2023-04-07T23:41:44.001Z,80.77
2023-04-07T23:44:14.359Z,80.62
2023-04-07T23:46:45.286Z,80.71
2023-04-07T23:49:16.738Z,80.86
2023-04-07T23:51:47.318Z,80.86
2023-04-07T23:54:17.692Z,80.81
2023-04-07T23:56:48.066Z,80.75
2023-04-07T23:59:19.238Z,80.81
